createdAt,value
2023-03-13T00:02:38.619Z,99991.47
2023-03-13T00:05:40.010Z,99995.91
2023-03-13T00:08:41.870Z,99989.06
2023-03-13T00:11:44.136Z,99988.91
2023-03-13T00:14:45.533Z,99980.75
2023-03-13T00:17:47.008Z,99967.44
2023-03-13T00:20:50.504Z,99965.66
2023-03-13T00:23:52.184Z,99964.59
2023-03-13T00:26:55.177Z,99958.47
2023-03-13T00:29:56.567Z,99957.56
2023-03-13T00:32:58.157Z,99949.50
2023-03-13T00:36:01.103Z,99945.91
2023-03-13T00:39:04.495Z,99934.47
2023-03-13T00:42:06.073Z,99922.94
2023-03-13T00:45:07.852Z,99921.00
2023-03-13T00:48:09.228Z,99917.97
2023-03-13T00:51:11.141Z,99914.25
2023-03-13T00:54:12.584Z,99907.09
2023-03-13T00:57:14.066Z,99902.69
2023-03-13T01:00:16.451Z,99895.66
2023-03-13T01:03:18.579Z,99886.91
2023-03-13T01:06:23.157Z,99895.47
2023-03-13T01:09:24.934Z,99884.91
2023-03-13T01:12:26.454Z,99884.03
2023-03-13T01:15:27.861Z,99879.50
2023-03-13T01:18:29.398Z,99875.91
2023-03-13T01:21:31.545Z,99861.84
2023-03-13T01:24:33.219Z,99859.09
2023-03-13T01:27:34.763Z,99851.13
2023-03-13T01:30:36.291Z,99848.31
2023-03-13T01:33:37.896Z,99837.94
2023-03-13T01:36:39.349Z,99836.88
2023-03-13T01:39:40.792Z,99825.00
2023-03-13T01:42:59.824Z,99826.44
2023-03-13T01:46:01.614Z,99816.22
2023-03-13T01:49:18.059Z,99820.38
2023-03-13T01:52:31.027Z,99819.44
2023-03-13T01:55:57.224Z,99799.91
2023-03-13T01:58:59.254Z,99805.16
2023-03-13T02:02:04.441Z,99799.03
2023-03-13T02:05:07.085Z,99794.22
2023-03-13T02:08:32.635Z,99788.59
2023-03-13T02:11:55.287Z,99786.66
2023-03-13T02:14:59.413Z,99782.25
2023-03-13T02:18:00.982Z,99774.44
2023-03-13T02:21:11.372Z,99767.16
2023-03-13T02:24:28.767Z,99757.97
2023-03-13T02:27:30.543Z,99760.06
2023-03-13T02:30:33.432Z,99752.94
2023-03-13T02:33:38.686Z,99752.94
2023-03-13T02:36:41.077Z,99739.44
2023-03-13T02:39:47.271Z,99755.59
2023-03-13T02:42:52.202Z,99734.63
2023-03-13T02:46:12.502Z,99735.13
2023-03-13T02:49:20.386Z,99728.22
2023-03-13T02:52:26.299Z,99725.59
2023-03-13T02:55:32.566Z,99720.66
2023-03-13T02:58:51.348Z,99715.09
2023-03-13T03:01:56.912Z,99698.44
2023-03-13T03:04:58.363Z,99687.97
2023-03-13T03:07:59.846Z,99694.03
2023-03-13T03:11:05.194Z,99698.38
2023-03-13T03:14:07.618Z,99674.97
2023-03-13T03:17:13.206Z,99679.16
2023-03-13T03:20:15.010Z,99671.50
2023-03-13T03:23:18.004Z,99671.56
2023-03-13T03:26:19.642Z,99664.59
2023-03-13T03:29:21.352Z,99669.13
2023-03-13T03:32:25.886Z,99660.41
2023-03-13T03:35:29.060Z,99664.38
2023-03-13T03:38:30.792Z,99659.97
2023-03-13T03:41:32.395Z,99667.41
2023-03-13T03:44:34.500Z,99659.41
2023-03-13T03:47:36.201Z,99655.66
2023-03-13T03:50:37.681Z,99666.59
2023-03-13T03:53:39.279Z,99664.28
2023-03-13T03:56:41.023Z,99651.25
2023-03-13T03:59:42.587Z,99654.19
2023-03-13T04:02:45.660Z,99648.91
2023-03-13T04:05:48.065Z,99651.25
2023-03-13T04:08:50.480Z,99650.94
2023-03-13T04:11:55.343Z,99658.78
2023-03-13T04:14:57.329Z,99658.06
2023-03-13T04:17:59.175Z,99664.06
2023-03-13T04:21:03.164Z,99665.25
2023-03-13T04:24:08.360Z,99645.59
2023-03-13T04:27:11.823Z,99646.97
2023-03-13T04:30:13.532Z,99635.53
2023-03-13T04:33:34.249Z,99631.97
2023-03-13T04:37:05.076Z,99648.53
2023-03-13T04:40:25.299Z,99633.53
2023-03-13T04:43:38.662Z,99632.13
2023-03-13T04:47:03.984Z,99627.16
2023-03-13T04:50:20.581Z,99618.47
2023-03-13T04:53:38.899Z,99617.91
2023-03-13T04:57:00.607Z,99623.44
2023-03-13T05:00:11.464Z,99622.03
2023-03-13T05:03:26.155Z,99625.94
2023-03-13T05:06:46.200Z,99620.97
2023-03-13T05:09:47.642Z,99628.88
2023-03-13T05:13:18.190Z,99621.81
2023-03-13T05:16:32.115Z,99619.88
2023-03-13T05:19:53.776Z,99621.41
2023-03-13T05:23:18.039Z,99605.88
2023-03-13T05:26:37.642Z,99621.72
2023-03-13T05:29:53.281Z,99608.13
2023-03-13T05:33:11.328Z,99606.19
2023-03-13T05:36:19.336Z,99610.72
2023-03-13T05:39:36.823Z,99602.47
2023-03-13T05:43:01.127Z,99598.72
2023-03-13T05:46:37.697Z,99594.63
2023-03-13T05:50:08.536Z,99599.28
2023-03-13T05:53:30.277Z,99589.25
2023-03-13T05:56:48.719Z,99606.63
2023-03-13T06:00:06.531Z,99594.63
2023-03-13T06:03:36.102Z,99593.91
2023-03-13T06:06:39.153Z,99592.00
2023-03-13T06:09:40.956Z,99585.78
2023-03-13T06:12:43.304Z,99582.66
2023-03-13T06:15:55.362Z,99592.03
2023-03-13T06:19:20.065Z,99587.44
2023-03-13T06:22:21.552Z,99585.88
2023-03-13T06:25:23.570Z,99583.34
2023-03-13T06:28:24.946Z,99582.16
2023-03-13T06:31:26.437Z,99583.69
2023-03-13T06:34:27.953Z,99587.38
2023-03-13T06:37:29.403Z,99592.75
2023-03-13T06:40:30.774Z,99600.66
2023-03-13T06:43:32.286Z,99607.50
2023-03-13T06:46:33.802Z,99616.28
2023-03-13T06:49:36.041Z,99609.81
2023-03-13T06:52:43.865Z,99603.00
2023-03-13T06:55:46.356Z,99595.38
2023-03-13T06:58:49.368Z,99592.09
2023-03-13T07:01:50.923Z,99589.78
2023-03-13T07:04:52.308Z,99584.56
2023-03-13T07:07:53.690Z,99583.19
2023-03-13T07:10:59.990Z,99574.50
2023-03-13T07:14:15.330Z,99557.88
2023-03-13T07:17:17.749Z,99552.44
2023-03-13T07:20:19.408Z,99561.72
2023-03-13T07:23:21.738Z,99543.81
2023-03-13T07:26:23.233Z,99547.75
2023-03-13T07:29:25.034Z,99533.75
2023-03-13T07:32:30.789Z,99543.63
2023-03-13T07:35:32.263Z,99525.97
2023-03-13T07:38:33.912Z,99533.31
2023-03-13T07:41:35.509Z,99533.53
2023-03-13T07:44:36.989Z,99558.66
2023-03-13T07:47:38.367Z,99562.41
2023-03-13T07:50:39.886Z,99566.06
2023-03-13T07:53:41.373Z,99566.84
2023-03-13T07:56:42.850Z,99557.00
2023-03-13T07:59:44.231Z,99552.47
2023-03-13T08:02:45.659Z,99545.47
2023-03-13T08:05:47.105Z,99545.47
2023-03-13T08:08:49.052Z,99540.03
2023-03-13T08:11:50.436Z,99556.72
2023-03-13T08:14:51.848Z,99556.44
2023-03-13T08:17:53.323Z,99552.06
2023-03-13T08:20:54.712Z,99556.34
2023-03-13T08:24:01.459Z,99556.16
2023-03-13T08:27:02.951Z,99560.72
2023-03-13T08:30:05.037Z,99562.81
2023-03-13T08:33:07.733Z,99554.69
2023-03-13T08:36:17.132Z,99554.78
2023-03-13T08:39:20.440Z,99539.63
2023-03-13T08:42:25.778Z,99551.19
2023-03-13T08:45:27.279Z,99558.34
2023-03-13T08:48:28.867Z,99570.97
2023-03-13T08:51:30.287Z,99568.50
2023-03-13T08:54:32.893Z,99553.69
2023-03-13T08:57:34.286Z,99562.00
2023-03-13T09:00:35.676Z,99552.13
2023-03-13T09:03:37.834Z,99554.53
2023-03-13T09:06:39.334Z,99556.41
2023-03-13T09:09:40.944Z,99566.81
2023-03-13T09:12:42.362Z,99570.69
2023-03-13T09:15:43.775Z,99565.78
2023-03-13T09:18:45.930Z,99552.47
2023-03-13T09:21:49.195Z,99541.03
2023-03-13T09:24:50.580Z,99536.22
2023-03-13T09:27:51.976Z,99546.44
2023-03-13T09:30:54.269Z,99543.28
2023-03-13T09:33:55.871Z,99546.00
2023-03-13T09:36:57.313Z,99549.09
2023-03-13T09:39:59.647Z,99533.94
2023-03-13T09:43:01.294Z,99548.53
2023-03-13T09:46:06.268Z,99543.66
2023-03-13T09:49:30.245Z,99537.13
2023-03-13T09:52:40.397Z,99531.06
2023-03-13T09:55:45.007Z,99537.69
2023-03-13T09:59:07.323Z,99541.38
2023-03-13T10:02:26.834Z,99518.09
2023-03-13T10:05:29.711Z,99514.06
2023-03-13T10:08:33.087Z,99503.53
2023-03-13T10:11:51.158Z,99500.75
2023-03-13T10:15:00.524Z,99502.84
2023-03-13T10:18:13.995Z,99491.69
2023-03-13T10:21:26.136Z,99493.47
2023-03-13T10:24:36.859Z,99485.78
2023-03-13T10:28:04.951Z,99486.69
2023-03-13T10:31:25.155Z,99478.66
2023-03-13T10:34:29.857Z,99475.09
2023-03-13T10:37:42.084Z,99472.44
2023-03-13T10:40:43.825Z,99467.78
2023-03-13T10:43:53.751Z,99460.97
2023-03-13T10:47:00.351Z,99450.94
2023-03-13T10:50:04.075Z,99451.38
2023-03-13T10:53:30.381Z,99447.53
2023-03-13T10:56:31.790Z,99436.59
2023-03-13T10:59:40.256Z,99434.09
2023-03-13T11:02:44.755Z,99417.41
2023-03-13T11:06:01.000Z,99403.53
2023-03-13T11:09:02.317Z,99391.81
2023-03-13T11:12:09.558Z,99391.69
2023-03-13T11:15:51.493Z,99384.22
2023-03-13T11:19:10.023Z,99368.34
2023-03-13T11:22:14.616Z,99363.09
2023-03-13T11:25:20.625Z,99359.19
2023-03-13T11:28:45.068Z,99353.19
2023-03-13T11:31:57.167Z,99339.53
2023-03-13T11:35:04.570Z,99331.78
2023-03-13T11:38:27.200Z,99330.22
2023-03-13T11:42:00.583Z,99330.69
2023-03-13T11:45:28.404Z,99314.06
2023-03-13T11:49:02.164Z,99296.88
2023-03-13T11:52:35.544Z,99282.75
2023-03-13T11:56:24.966Z,99286.59
2023-03-13T11:59:52.840Z,99265.19
2023-03-13T12:03:04.786Z,99251.09
2023-03-13T12:06:27.360Z,99247.91
2023-03-13T12:09:51.733Z,99221.56
2023-03-13T12:13:20.000Z,99222.97
2023-03-13T12:16:27.021Z,99226.25
2023-03-13T12:19:45.458Z,99222.34
2023-03-13T12:22:49.829Z,99204.19
2023-03-13T12:26:03.337Z,99196.31
2023-03-13T12:29:13.920Z,99183.38
2023-03-13T12:32:54.109Z,99187.25
2023-03-13T12:36:21.016Z,99173.97
2023-03-13T12:40:12.227Z,99164.59
2023-03-13T12:43:29.969Z,99147.91
2023-03-13T12:46:42.596Z,99144.53
2023-03-13T12:50:02.351Z,99129.06
2023-03-13T12:53:29.930Z,99120.06
2023-03-13T12:56:46.320Z,99131.94
2023-03-13T12:59:54.412Z,99108.63
2023-03-13T13:03:16.183Z,99113.59
2023-03-13T13:06:18.122Z,99104.44
2023-03-13T13:09:59.774Z,99096.06
2023-03-13T13:13:13.331Z,99075.53
2023-03-13T13:16:20.267Z,99070.78
2023-03-13T13:19:24.591Z,99059.66
2023-03-13T13:22:38.457Z,99063.41
2023-03-13T13:25:40.040Z,99057.88
2023-03-13T13:28:43.788Z,99045.31
2023-03-13T13:31:48.494Z,99026.34
2023-03-13T13:34:56.041Z,99013.13
2023-03-13T13:38:18.980Z,99003.88
2023-03-13T13:41:20.773Z,98995.94
2023-03-13T13:44:29.514Z,98996.63
2023-03-13T13:47:33.792Z,98972.16
2023-03-13T13:50:35.408Z,98973.63
2023-03-13T13:53:59.601Z,98964.25
2023-03-13T13:57:11.352Z,98959.72
2023-03-13T14:00:27.097Z,98946.88
2023-03-13T14:03:31.762Z,98949.06
2023-03-13T14:06:36.684Z,98938.69
2023-03-13T14:09:52.505Z,98927.56
2023-03-13T14:12:57.596Z,98926.72
2023-03-13T14:16:23.700Z,98915.38
2023-03-13T14:19:33.897Z,98894.75
2023-03-13T14:22:46.669Z,98893.78
2023-03-13T14:25:50.337Z,98876.56
2023-03-13T14:28:54.633Z,98873.75
2023-03-13T14:31:58.686Z,98859.97
2023-03-13T14:35:00.151Z,98852.19
2023-03-13T14:38:03.398Z,98840.06
2023-03-13T14:41:04.837Z,98845.34
2023-03-13T14:44:14.966Z,98842.03
2023-03-13T14:47:16.655Z,98827.22
2023-03-13T14:50:18.560Z,98808.66
2023-03-13T14:53:22.882Z,98804.41
2023-03-13T14:56:38.666Z,98792.78
2023-03-13T14:59:40.730Z,98782.75
2023-03-13T15:02:43.390Z,98776.28
2023-03-13T15:05:47.677Z,98777.69
2023-03-13T15:09:15.306Z,98769.16
2023-03-13T15:12:20.217Z,98755.81
2023-03-13T15:15:25.943Z,98750.06
2023-03-13T15:18:30.187Z,98756.28
2023-03-13T15:21:33.681Z,98742.59
2023-03-13T15:24:35.095Z,98737.53
2023-03-13T15:27:36.621Z,98739.13
2023-03-13T15:30:38.022Z,98742.00
2023-03-13T15:33:39.716Z,98743.78
2023-03-13T15:36:42.400Z,98732.56
2023-03-13T15:39:43.856Z,98734.63
2023-03-13T15:42:45.668Z,98724.75
2023-03-13T15:45:51.710Z,98736.69
2023-03-13T15:48:53.925Z,98721.56
2023-03-13T15:51:57.770Z,98714.75
2023-03-13T15:54:59.387Z,98709.00
2023-03-13T15:58:00.776Z,98708.16
2023-03-13T16:01:02.237Z,98704.97
2023-03-13T16:04:04.461Z,98696.88
2023-03-13T16:07:11.474Z,98681.03
2023-03-13T16:10:25.268Z,98680.56
2023-03-13T16:13:27.027Z,98673.47
2023-03-13T16:16:36.440Z,98672.16
2023-03-13T16:19:38.642Z,98663.00
2023-03-13T16:22:40.028Z,98666.97
2023-03-13T16:25:41.496Z,98649.88
2023-03-13T16:28:43.581Z,98646.50
2023-03-13T16:31:45.097Z,98665.91
2023-03-13T16:34:46.630Z,98673.00
2023-03-13T16:37:50.694Z,98693.03
2023-03-13T16:40:52.102Z,98687.94
2023-03-13T16:43:54.431Z,98694.50
2023-03-13T16:47:05.630Z,98702.47
2023-03-13T16:50:32.473Z,98715.28
2023-03-13T16:53:33.882Z,98704.88
2023-03-13T16:56:38.439Z,98714.63
2023-03-13T16:59:39.890Z,98702.41
2023-03-13T17:02:41.366Z,98713.16
2023-03-13T17:05:42.773Z,98713.81
2023-03-13T17:08:44.543Z,98725.94
2023-03-13T17:11:46.479Z,98723.47
2023-03-13T17:14:47.963Z,98706.94
2023-03-13T17:17:54.092Z,98702.75
2023-03-13T17:20:55.561Z,98695.00
2023-03-13T17:23:57.024Z,98697.06
2023-03-13T17:26:58.911Z,98684.81
2023-03-13T17:30:00.360Z,98694.25
2023-03-13T17:33:01.862Z,98697.75
2023-03-13T17:36:16.931Z,98711.16
2023-03-13T17:39:18.384Z,98701.00
2023-03-13T17:42:19.841Z,98699.78
2023-03-13T17:45:21.257Z,98694.59
2023-03-13T17:48:22.740Z,98687.03
2023-03-13T17:51:26.340Z,98677.84
2023-03-13T17:54:27.754Z,98675.09
2023-03-13T17:57:29.126Z,98669.31
2023-03-13T18:00:32.529Z,98662.31
2023-03-13T18:03:33.936Z,98650.84
2023-03-13T18:06:42.318Z,98650.13
2023-03-13T18:09:47.393Z,98661.34
2023-03-13T18:12:49.019Z,98706.44
2023-03-13T18:15:50.472Z,98731.41
2023-03-13T18:18:53.298Z,98735.00
2023-03-13T18:21:55.788Z,98715.97
2023-03-13T18:24:57.394Z,98671.84
2023-03-13T18:27:59.076Z,98638.31
2023-03-13T18:31:00.578Z,98650.00
2023-03-13T18:34:04.090Z,98647.97
2023-03-13T18:37:20.632Z,98670.59
2023-03-13T18:40:25.322Z,98686.50
2023-03-13T18:43:26.730Z,98686.63
2023-03-13T18:46:31.608Z,98665.66
2023-03-13T18:49:32.999Z,98663.72
2023-03-13T18:52:34.391Z,98651.78
2023-03-13T18:55:35.797Z,98672.66
2023-03-13T18:58:37.343Z,98690.22
2023-03-13T19:01:38.994Z,98708.94
2023-03-13T19:04:40.426Z,98722.16
2023-03-13T19:07:41.935Z,98729.00
2023-03-13T19:10:43.463Z,98763.75
2023-03-13T19:13:45.066Z,98802.88
2023-03-13T19:16:51.581Z,98806.47
2023-03-13T19:19:57.045Z,98808.53
2023-03-13T19:23:00.526Z,98813.94
2023-03-13T19:26:02.063Z,98828.16
2023-03-13T19:29:06.169Z,98867.56
2023-03-13T19:32:13.393Z,98870.13
2023-03-13T19:35:18.606Z,98885.50
2023-03-13T19:38:20.002Z,98886.34
2023-03-13T19:41:21.378Z,98876.06
2023-03-13T19:44:28.052Z,98896.75
2023-03-13T19:47:29.435Z,98918.22
2023-03-13T19:50:31.472Z,98911.47
2023-03-13T19:53:34.486Z,98893.38
2023-03-13T19:56:37.324Z,98905.78
2023-03-13T19:59:39.971Z,98891.50
2023-03-13T20:02:41.693Z,98888.59
2023-03-13T20:05:43.210Z,98877.72
2023-03-13T20:08:45.936Z,98877.41
2023-03-13T20:11:47.441Z,98862.56
2023-03-13T20:14:48.912Z,98852.13
2023-03-13T20:17:50.598Z,98847.78
2023-03-13T20:20:51.999Z,98822.16
2023-03-13T20:23:53.433Z,98794.69
2023-03-13T20:26:55.642Z,98798.59
2023-03-13T20:29:57.123Z,98773.22
2023-03-13T20:33:00.039Z,98766.72
2023-03-13T20:36:09.309Z,98738.72
2023-03-13T20:39:10.907Z,98731.53
2023-03-13T20:42:12.636Z,98734.97
2023-03-13T20:45:14.065Z,98732.53
2023-03-13T20:48:16.114Z,98726.91
2023-03-13T20:51:17.716Z,98740.13
2023-03-13T20:54:19.178Z,98739.13
2023-03-13T20:57:21.073Z,98741.31
2023-03-13T21:00:23.250Z,98740.81
2023-03-13T21:03:24.812Z,98735.09
2023-03-13T21:06:27.199Z,98719.25
2023-03-13T21:09:28.683Z,98696.97
2023-03-13T21:12:30.200Z,98725.00
2023-03-13T21:15:32.465Z,98723.41
2023-03-13T21:18:34.093Z,98730.97
2023-03-13T21:21:35.466Z,98740.75
2023-03-13T21:24:36.904Z,98716.25
2023-03-13T21:27:38.902Z,98722.66
2023-03-13T21:30:40.272Z,98726.53
2023-03-13T21:33:43.026Z,98725.88
2023-03-13T21:36:44.583Z,98724.19
2023-03-13T21:39:50.157Z,98713.63
2023-03-13T21:42:51.547Z,98726.91
2023-03-13T21:45:52.929Z,98731.34
2023-03-13T21:48:54.375Z,98718.38
2023-03-13T21:51:56.356Z,98712.56
2023-03-13T21:54:57.874Z,98683.13
2023-03-13T21:57:59.260Z,98678.78
2023-03-13T22:01:00.760Z,98664.66
2023-03-13T22:04:02.184Z,98656.81
2023-03-13T22:07:03.829Z,98651.09
2023-03-13T22:10:05.715Z,98657.22
2023-03-13T22:13:12.435Z,98647.13
2023-03-13T22:16:13.840Z,98658.72
2023-03-13T22:19:17.346Z,98669.09
2023-03-13T22:22:21.683Z,98675.91
2023-03-13T22:25:23.091Z,98665.91
2023-03-13T22:28:25.580Z,98678.34
2023-03-13T22:31:27.188Z,98684.94
2023-03-13T22:34:28.989Z,98669.09
2023-03-13T22:37:30.622Z,98646.00
2023-03-13T22:40:32.563Z,98638.41
2023-03-13T22:43:35.071Z,98642.28
2023-03-13T22:46:36.790Z,98636.16
2023-03-13T22:49:38.277Z,98640.16
2023-03-13T22:52:39.688Z,98647.13
2023-03-13T22:55:41.069Z,98636.75
2023-03-13T22:58:42.711Z,98625.34
2023-03-13T23:01:44.195Z,98619.44
2023-03-13T23:04:45.562Z,98626.41
2023-03-13T23:07:47.037Z,98658.78
2023-03-13T23:10:48.456Z,98669.25
2023-03-13T23:13:49.884Z,98669.25
2023-03-13T23:16:51.349Z,98677.09
2023-03-13T23:19:52.710Z,98695.88
2023-03-13T23:22:54.171Z,98701.94
2023-03-13T23:25:55.556Z,98701.59
2023-03-13T23:28:57.013Z,98706.66
2023-03-13T23:31:58.412Z,98698.19
2023-03-13T23:35:00.683Z,98710.22
2023-03-13T23:38:02.063Z,98725.38
2023-03-13T23:41:08.427Z,98725.88
2023-03-13T23:44:09.889Z,98733.88
2023-03-13T23:47:11.292Z,98729.81
2023-03-13T23:50:14.832Z,98719.03
2023-03-13T23:53:16.220Z,98727.09
2023-03-13T23:56:17.878Z,98722.22
2023-03-13T23:59:19.307Z,98734.28
